sensor_id;sensor_type;location;lat;lon;timestamp;P1;durP1;ratioP1;P2;durP2;ratioP2
61640;SDS011;62201;49.966;8.342;2022-10-13T00:01:14;54.03;;;26.40;;
61640;SDS011;62201;49.966;8.342;2022-10-13T00:03:42;67.32;;;30.70;;
61640;SDS011;62201;49.966;8.342;2022-10-13T00:06:11;58.50;;;31.20;;
61640;SDS011;62201;49.966;8.342;2022-10-13T00:08:37;53.47;;;29.20;;
61640;SDS011;62201;49.966;8.342;2022-10-13T00:11:13;33.77;;;18.10;;
61640;SDS011;62201;49.966;8.342;2022-10-13T00:13:40;36.87;;;21.67;;
61640;SDS011;62201;49.966;8.342;2022-10-13T00:16:06;57.83;;;28.90;;
61640;SDS011;62201;49.966;8.342;2022-10-13T00:18:32;56.90;;;29.37;;
61640;SDS011;62201;49.966;8.342;2022-10-13T00:20:58;54.10;;;27.57;;
61640;SDS011;62201;49.966;8.342;2022-10-13T00:23:23;68.00;;;31.63;;
61640;SDS011;62201;49.966;8.342;2022-10-13T00:25:49;69.80;;;33.17;;
61640;SDS011;62201;49.966;8.342;2022-10-13T00:28:15;41.57;;;22.83;;
61640;SDS011;62201;49.966;8.342;2022-10-13T00:30:43;47.23;;;25.23;;
61640;SDS011;62201;49.966;8.342;2022-10-13T00:33:09;49.73;;;25.97;;
61640;SDS011;62201;49.966;8.342;2022-10-13T00:35:42;34.83;;;21.10;;
61640;SDS011;62201;49.966;8.342;2022-10-13T00:38:11;63.00;;;31.77;;
61640;SDS011;62201;49.966;8.342;2022-10-13T00:40:44;268.23;;;38.33;;
61640;SDS011;62201;49.966;8.342;2022-10-13T00:43:15;108.03;;;40.93;;
61640;SDS011;62201;49.966;8.342;2022-10-13T00:45:42;404.87;;;53.93;;
61640;SDS011;62201;49.966;8.342;2022-10-13T00:48:07;178.00;;;46.67;;
61640;SDS011;62201;49.966;8.342;2022-10-13T00:50:35;204.73;;;42.30;;
61640;SDS011;62201;49.966;8.342;2022-10-13T00:53:04;107.30;;;35.67;;
61640;SDS011;62201;49.966;8.342;2022-10-13T00:55:33;105.53;;;40.23;;
61640;SDS011;62201;49.966;8.342;2022-10-13T00:58:01;85.37;;;36.23;;
61640;SDS011;62201;49.966;8.342;2022-10-13T01:00:29;97.87;;;27.13;;
61640;SDS011;62201;49.966;8.342;2022-10-13T01:02:55;589.03;;;48.93;;
61640;SDS011;62201;49.966;8.342;2022-10-13T01:05:21;158.20;;;26.73;;
61640;SDS011;62201;49.966;8.342;2022-10-13T01:07:49;308.97;;;50.20;;
61640;SDS011;62201;49.966;8.342;2022-10-13T01:11:07;255.80;;;32.97;;
61640;SDS011;62201;49.966;8.342;2022-10-13T01:18:48;61.27;;;21.90;;
61640;SDS011;62201;49.966;8.342;2022-10-13T01:27:04;59.73;;;19.47;;
61640;SDS011;62201;49.966;8.342;2022-10-13T01:29:54;59.83;;;24.77;;
61640;SDS011;62201;49.966;8.342;2022-10-13T01:32:41;132.73;;;31.20;;
61640;SDS011;62201;49.966;8.342;2022-10-13T01:35:38;118.75;;;31.05;;
61640;SDS011;62201;49.966;8.342;2022-10-13T01:43:59;64.07;;;28.47;;
61640;SDS011;62201;49.966;8.342;2022-10-13T01:46:40;221.07;;;33.20;;
61640;SDS011;62201;49.966;8.342;2022-10-13T01:49:11;62.03;;;26.50;;
61640;SDS011;62201;49.966;8.342;2022-10-13T01:51:39;206.63;;;35.45;;
61640;SDS011;62201;49.966;8.342;2022-10-13T01:54:06;93.00;;;30.55;;
61640;SDS011;62201;49.966;8.342;2022-10-13T01:56:32;147.32;;;34.38;;
61640;SDS011;62201;49.966;8.342;2022-10-13T01:58:58;187.40;;;37.83;;
61640;SDS011;62201;49.966;8.342;2022-10-13T02:01:47;417.10;;;46.03;;
61640;SDS011;62201;49.966;8.342;2022-10-13T02:09:46;484.38;;;54.67;;
61640;SDS011;62201;49.966;8.342;2022-10-13T02:12:23;488.50;;;50.30;;
61640;SDS011;62201;49.966;8.342;2022-10-13T02:15:01;420.10;;;62.00;;
61640;SDS011;62201;49.966;8.342;2022-10-13T02:17:28;287.98;;;53.13;;
61640;SDS011;62201;49.966;8.342;2022-10-13T02:19:55;582.90;;;62.60;;
61640;SDS011;62201;49.966;8.342;2022-10-13T02:22:23;352.92;;;46.20;;
61640;SDS011;62201;49.966;8.342;2022-10-13T02:24:53;285.40;;;43.67;;
61640;SDS011;62201;49.966;8.342;2022-10-13T02:27:19;298.17;;;49.05;;
61640;SDS011;62201;49.966;8.342;2022-10-13T02:29:53;277.00;;;50.67;;
61640;SDS011;62201;49.966;8.342;2022-10-13T02:32:20;267.50;;;49.92;;
61640;SDS011;62201;49.966;8.342;2022-10-13T02:34:46;734.03;;;98.57;;
61640;SDS011;62201;49.966;8.342;2022-10-13T02:37:12;218.27;;;45.35;;
61640;SDS011;62201;49.966;8.342;2022-10-13T02:39:37;201.13;;;51.53;;
61640;SDS011;62201;49.966;8.342;2022-10-13T02:42:03;142.38;;;42.20;;
61640;SDS011;62201;49.966;8.342;2022-10-13T02:44:29;104.15;;;37.45;;
61640;SDS011;62201;49.966;8.342;2022-10-13T02:46:54;114.10;;;39.42;;
61640;SDS011;62201;49.966;8.342;2022-10-13T02:49:20;75.53;;;31.80;;
61640;SDS011;62201;49.966;8.342;2022-10-13T02:51:45;73.13;;;30.52;;
61640;SDS011;62201;49.966;8.342;2022-10-13T02:54:11;135.93;;;42.72;;
61640;SDS011;62201;49.966;8.342;2022-10-13T02:56:36;116.38;;;36.35;;
61640;SDS011;62201;49.966;8.342;2022-10-13T02:59:02;159.50;;;41.30;;
61640;SDS011;62201;49.966;8.342;2022-10-13T03:01:28;114.70;;;37.53;;
61640;SDS011;62201;49.966;8.342;2022-10-13T03:03:53;139.15;;;40.50;;
61640;SDS011;62201;49.966;8.342;2022-10-13T03:06:18;236.55;;;42.45;;
61640;SDS011;62201;49.966;8.342;2022-10-13T03:08:44;145.48;;;39.50;;
61640;SDS011;62201;49.966;8.342;2022-10-13T03:11:09;195.85;;;46.80;;
61640;SDS011;62201;49.966;8.342;2022-10-13T03:13:35;150.15;;;40.88;;
61640;SDS011;62201;49.966;8.342;2022-10-13T03:16:01;103.60;;;34.88;;
61640;SDS011;62201;49.966;8.342;2022-10-13T03:18:27;126.97;;;39.20;;
61640;SDS011;62201;49.966;8.342;2022-10-13T03:21:00;290.27;;;46.13;;
61640;SDS011;62201;49.966;8.342;2022-10-13T03:23:27;142.50;;;40.55;;
61640;SDS011;62201;49.966;8.342;2022-10-13T03:25:52;135.45;;;37.47;;
61640;SDS011;62201;49.966;8.342;2022-10-13T03:28:18;298.98;;;44.95;;
61640;SDS011;62201;49.966;8.342;2022-10-13T03:30:44;196.88;;;40.92;;
61640;SDS011;62201;49.966;8.342;2022-10-13T03:33:09;153.25;;;37.88;;
61640;SDS011;62201;49.966;8.342;2022-10-13T03:35:35;127.80;;;35.88;;
61640;SDS011;62201;49.966;8.342;2022-10-13T03:38:00;136.43;;;37.30;;
61640;SDS011;62201;49.966;8.342;2022-10-13T03:40:26;108.65;;;33.97;;
61640;SDS011;62201;49.966;8.342;2022-10-13T03:42:52;139.10;;;35.30;;
61640;SDS011;62201;49.966;8.342;2022-10-13T03:45:18;150.57;;;36.40;;
61640;SDS011;62201;49.966;8.342;2022-10-13T03:47:43;143.45;;;40.10;;
61640;SDS011;62201;49.966;8.342;2022-10-13T03:50:09;66.47;;;27.35;;
61640;SDS011;62201;49.966;8.342;2022-10-13T03:52:38;169.32;;;40.47;;
61640;SDS011;62201;49.966;8.342;2022-10-13T03:55:03;82.18;;;31.02;;
61640;SDS011;62201;49.966;8.342;2022-10-13T03:57:29;128.77;;;32.80;;
61640;SDS011;62201;49.966;8.342;2022-10-13T03:59:54;131.90;;;37.13;;
61640;SDS011;62201;49.966;8.342;2022-10-13T04:02:24;84.10;;;31.90;;
61640;SDS011;62201;49.966;8.342;2022-10-13T04:04:49;98.57;;;34.72;;
61640;SDS011;62201;49.966;8.342;2022-10-13T04:07:15;104.68;;;38.55;;
61640;SDS011;62201;49.966;8.342;2022-10-13T04:09:40;100.97;;;37.92;;
61640;SDS011;62201;49.966;8.342;2022-10-13T04:12:05;75.75;;;32.30;;
61640;SDS011;62201;49.966;8.342;2022-10-13T04:14:31;95.90;;;36.22;;
61640;SDS011;62201;49.966;8.342;2022-10-13T04:16:56;97.53;;;36.50;;
61640;SDS011;62201;49.966;8.342;2022-10-13T04:19:22;90.95;;;32.88;;
61640;SDS011;62201;49.966;8.342;2022-10-13T04:21:47;97.43;;;32.42;;
61640;SDS011;62201;49.966;8.342;2022-10-13T04:24:13;78.68;;;30.35;;
61640;SDS011;62201;49.966;8.342;2022-10-13T04:26:39;109.35;;;31.92;;
61640;SDS011;62201;49.966;8.342;2022-10-13T04:29:05;78.38;;;31.90;;
61640;SDS011;62201;49.966;8.342;2022-10-13T04:31:32;90.35;;;31.55;;
61640;SDS011;62201;49.966;8.342;2022-10-13T04:33:58;72.07;;;28.15;;
61640;SDS011;62201;49.966;8.342;2022-10-13T04:36:24;116.72;;;31.77;;
61640;SDS011;62201;49.966;8.342;2022-10-13T04:38:50;81.63;;;29.63;;
61640;SDS011;62201;49.966;8.342;2022-10-13T04:41:16;77.15;;;29.77;;
61640;SDS011;62201;49.966;8.342;2022-10-13T04:43:42;99.03;;;31.63;;
61640;SDS011;62201;49.966;8.342;2022-10-13T04:46:15;170.70;;;35.15;;
61640;SDS011;62201;49.966;8.342;2022-10-13T04:48:42;262.90;;;34.83;;
61640;SDS011;62201;49.966;8.342;2022-10-13T04:51:12;237.88;;;34.15;;
61640;SDS011;62201;49.966;8.342;2022-10-13T04:53:40;184.27;;;35.33;;
61640;SDS011;62201;49.966;8.342;2022-10-13T04:56:07;80.18;;;29.52;;
61640;SDS011;62201;49.966;8.342;2022-10-13T04:58:34;90.35;;;32.13;;
61640;SDS011;62201;49.966;8.342;2022-10-13T05:01:01;182.25;;;35.72;;
61640;SDS011;62201;49.966;8.342;2022-10-13T05:03:27;445.70;;;46.58;;
61640;SDS011;62201;49.966;8.342;2022-10-13T05:05:53;135.15;;;33.88;;
61640;SDS011;62201;49.966;8.342;2022-10-13T05:08:18;373.23;;;40.67;;
61640;SDS011;62201;49.966;8.342;2022-10-13T05:10:54;408.45;;;47.55;;
61640;SDS011;62201;49.966;8.342;2022-10-13T05:13:24;299.80;;;49.03;;
61640;SDS011;62201;49.966;8.342;2022-10-13T05:15:51;198.13;;;39.80;;
61640;SDS011;62201;49.966;8.342;2022-10-13T05:18:16;287.40;;;44.85;;
61640;SDS011;62201;49.966;8.342;2022-10-13T05:20:42;191.88;;;39.00;;
61640;SDS011;62201;49.966;8.342;2022-10-13T05:23:07;157.43;;;33.50;;
61640;SDS011;62201;49.966;8.342;2022-10-13T05:25:33;328.85;;;45.45;;
61640;SDS011;62201;49.966;8.342;2022-10-13T05:27:59;272.15;;;43.72;;
61640;SDS011;62201;49.966;8.342;2022-10-13T05:30:25;209.50;;;37.42;;
61640;SDS011;62201;49.966;8.342;2022-10-13T05:32:50;185.85;;;37.78;;
61640;SDS011;62201;49.966;8.342;2022-10-13T05:35:15;242.95;;;40.53;;
61640;SDS011;62201;49.966;8.342;2022-10-13T05:37:41;305.77;;;45.60;;
61640;SDS011;62201;49.966;8.342;2022-10-13T05:40:06;223.25;;;42.50;;
61640;SDS011;62201;49.966;8.342;2022-10-13T05:42:32;245.88;;;43.83;;
61640;SDS011;62201;49.966;8.342;2022-10-13T05:44:59;150.30;;;37.83;;
61640;SDS011;62201;49.966;8.342;2022-10-13T05:47:25;204.27;;;42.10;;
61640;SDS011;62201;49.966;8.342;2022-10-13T05:49:52;326.50;;;54.22;;
61640;SDS011;62201;49.966;8.342;2022-10-13T05:52:19;239.40;;;45.95;;
61640;SDS011;62201;49.966;8.342;2022-10-13T05:54:46;56.25;;;28.45;;
61640;SDS011;62201;49.966;8.342;2022-10-13T05:57:16;54.03;;;29.10;;
61640;SDS011;62201;49.966;8.342;2022-10-13T05:59:46;142.00;;;43.33;;
61640;SDS011;62201;49.966;8.342;2022-10-13T06:02:16;226.88;;;52.22;;
61640;SDS011;62201;49.966;8.342;2022-10-13T06:04:45;132.23;;;44.47;;
61640;SDS011;62201;49.966;8.342;2022-10-13T06:07:14;65.43;;;31.45;;
61640;SDS011;62201;49.966;8.342;2022-10-13T06:09:40;56.65;;;31.08;;
61640;SDS011;62201;49.966;8.342;2022-10-13T06:12:06;50.75;;;30.05;;
61640;SDS011;62201;49.966;8.342;2022-10-13T06:14:33;97.93;;;38.22;;
61640;SDS011;62201;49.966;8.342;2022-10-13T06:16:58;78.53;;;35.58;;
61640;SDS011;62201;49.966;8.342;2022-10-13T06:19:24;86.90;;;35.30;;
61640;SDS011;62201;49.966;8.342;2022-10-13T06:21:49;53.75;;;29.13;;
61640;SDS011;62201;49.966;8.342;2022-10-13T06:24:15;54.83;;;28.75;;
61640;SDS011;62201;49.966;8.342;2022-10-13T06:26:40;60.60;;;28.02;;
61640;SDS011;62201;49.966;8.342;2022-10-13T06:29:06;56.10;;;27.85;;
61640;SDS011;62201;49.966;8.342;2022-10-13T06:31:31;47.65;;;27.63;;
61640;SDS011;62201;49.966;8.342;2022-10-13T06:33:57;55.25;;;27.90;;
61640;SDS011;62201;49.966;8.342;2022-10-13T06:36:23;48.35;;;26.70;;
61640;SDS011;62201;49.966;8.342;2022-10-13T06:38:48;53.70;;;26.20;;
61640;SDS011;62201;49.966;8.342;2022-10-13T06:41:14;50.75;;;24.92;;
61640;SDS011;62201;49.966;8.342;2022-10-13T06:43:40;158.95;;;29.85;;
61640;SDS011;62201;49.966;8.342;2022-10-13T06:46:05;97.38;;;31.90;;
61640;SDS011;62201;49.966;8.342;2022-10-13T06:48:31;50.58;;;24.15;;
61640;SDS011;62201;49.966;8.342;2022-10-13T06:51:07;39.92;;;23.52;;
61640;SDS011;62201;49.966;8.342;2022-10-13T06:53:34;47.65;;;24.75;;
61640;SDS011;62201;49.966;8.342;2022-10-13T06:56:00;67.13;;;23.35;;
61640;SDS011;62201;49.966;8.342;2022-10-13T06:58:27;85.22;;;26.92;;
61640;SDS011;62201;49.966;8.342;2022-10-13T07:00:52;63.13;;;24.75;;
61640;SDS011;62201;49.966;8.342;2022-10-13T07:03:18;47.03;;;26.05;;
61640;SDS011;62201;49.966;8.342;2022-10-13T07:05:45;48.63;;;23.75;;
61640;SDS011;62201;49.966;8.342;2022-10-13T07:08:10;48.53;;;22.83;;
61640;SDS011;62201;49.966;8.342;2022-10-13T07:10:36;46.75;;;24.08;;
61640;SDS011;62201;49.966;8.342;2022-10-13T07:13:02;55.83;;;24.05;;
61640;SDS011;62201;49.966;8.342;2022-10-13T07:15:28;53.78;;;23.95;;
61640;SDS011;62201;49.966;8.342;2022-10-13T07:17:54;46.53;;;23.67;;
61640;SDS011;62201;49.966;8.342;2022-10-13T07:20:20;48.28;;;24.10;;
61640;SDS011;62201;49.966;8.342;2022-10-13T07:22:46;45.05;;;24.65;;
61640;SDS011;62201;49.966;8.342;2022-10-13T07:25:12;44.42;;;24.05;;
61640;SDS011;62201;49.966;8.342;2022-10-13T07:27:37;44.72;;;22.48;;
61640;SDS011;62201;49.966;8.342;2022-10-13T07:30:05;48.78;;;24.80;;
61640;SDS011;62201;49.966;8.342;2022-10-13T07:32:34;41.53;;;23.38;;
61640;SDS011;62201;49.966;8.342;2022-10-13T07:35:00;49.25;;;24.48;;
61640;SDS011;62201;49.966;8.342;2022-10-13T07:37:26;44.80;;;23.95;;
61640;SDS011;62201;49.966;8.342;2022-10-13T07:39:51;52.70;;;24.02;;
61640;SDS011;62201;49.966;8.342;2022-10-13T07:42:17;45.80;;;24.67;;
61640;SDS011;62201;49.966;8.342;2022-10-13T07:44:43;52.63;;;26.98;;
61640;SDS011;62201;49.966;8.342;2022-10-13T07:47:08;57.58;;;24.85;;
61640;SDS011;62201;49.966;8.342;2022-10-13T07:49:34;59.42;;;26.13;;
61640;SDS011;62201;49.966;8.342;2022-10-13T07:51:59;55.17;;;26.75;;
61640;SDS011;62201;49.966;8.342;2022-10-13T07:54:24;52.13;;;26.10;;
61640;SDS011;62201;49.966;8.342;2022-10-13T07:56:51;54.22;;;24.80;;
61640;SDS011;62201;49.966;8.342;2022-10-13T07:59:17;50.15;;;25.25;;
61640;SDS011;62201;49.966;8.342;2022-10-13T08:01:42;50.33;;;25.20;;
61640;SDS011;62201;49.966;8.342;2022-10-13T08:04:08;47.90;;;25.42;;
61640;SDS011;62201;49.966;8.342;2022-10-13T08:06:33;55.03;;;26.00;;
61640;SDS011;62201;49.966;8.342;2022-10-13T08:08:58;48.45;;;25.40;;
61640;SDS011;62201;49.966;8.342;2022-10-13T08:11:24;53.80;;;26.63;;
61640;SDS011;62201;49.966;8.342;2022-10-13T08:13:51;50.65;;;26.02;;
61640;SDS011;62201;49.966;8.342;2022-10-13T08:16:17;51.00;;;25.67;;
61640;SDS011;62201;49.966;8.342;2022-10-13T08:18:43;50.55;;;27.35;;
61640;SDS011;62201;49.966;8.342;2022-10-13T08:21:13;50.38;;;25.48;;
61640;SDS011;62201;49.966;8.342;2022-10-13T08:23:41;49.08;;;24.83;;
61640;SDS011;62201;49.966;8.342;2022-10-13T08:26:11;57.85;;;25.90;;
61640;SDS011;62201;49.966;8.342;2022-10-13T08:28:40;50.42;;;26.40;;
61640;SDS011;62201;49.966;8.342;2022-10-13T08:31:05;47.00;;;25.38;;
61640;SDS011;62201;49.966;8.342;2022-10-13T08:33:31;50.45;;;26.38;;
61640;SDS011;62201;49.966;8.342;2022-10-13T08:35:56;46.47;;;24.40;;
61640;SDS011;62201;49.966;8.342;2022-10-13T08:38:21;44.50;;;24.90;;
61640;SDS011;62201;49.966;8.342;2022-10-13T08:40:47;42.55;;;23.80;;
61640;SDS011;62201;49.966;8.342;2022-10-13T08:43:15;45.97;;;24.80;;
61640;SDS011;62201;49.966;8.342;2022-10-13T08:45:42;40.70;;;23.50;;
61640;SDS011;62201;49.966;8.342;2022-10-13T08:48:19;43.53;;;24.48;;
61640;SDS011;62201;49.966;8.342;2022-10-13T08:50:51;37.08;;;23.02;;
61640;SDS011;62201;49.966;8.342;2022-10-13T08:56:14;40.55;;;24.42;;
61640;SDS011;62201;49.966;8.342;2022-10-13T08:58:49;44.33;;;23.38;;
61640;SDS011;62201;49.966;8.342;2022-10-13T09:01:21;43.70;;;24.70;;
61640;SDS011;62201;49.966;8.342;2022-10-13T09:06:25;45.50;;;24.73;;
61640;SDS011;62201;49.966;8.342;2022-10-13T09:09:06;49.58;;;24.33;;
61640;SDS011;62201;49.966;8.342;2022-10-13T09:11:34;50.13;;;26.30;;
61640;SDS011;62201;49.966;8.342;2022-10-13T09:14:06;48.42;;;26.23;;
61640;SDS011;62201;49.966;8.342;2022-10-13T09:16:34;45.10;;;25.50;;
61640;SDS011;62201;49.966;8.342;2022-10-13T09:19:20;46.00;;;26.92;;
61640;SDS011;62201;49.966;8.342;2022-10-13T09:21:49;44.85;;;24.17;;
61640;SDS011;62201;49.966;8.342;2022-10-13T09:24:17;46.28;;;26.05;;
61640;SDS011;62201;49.966;8.342;2022-10-13T09:26:45;48.72;;;26.33;;
61640;SDS011;62201;49.966;8.342;2022-10-13T09:29:17;49.47;;;26.23;;
61640;SDS011;62201;49.966;8.342;2022-10-13T09:31:44;41.00;;;25.77;;
61640;SDS011;62201;49.966;8.342;2022-10-13T09:39:28;47.83;;;26.00;;
61640;SDS011;62201;49.966;8.342;2022-10-13T09:42:08;53.85;;;27.33;;
61640;SDS011;62201;49.966;8.342;2022-10-13T09:44:55;55.67;;;28.63;;
61640;SDS011;62201;49.966;8.342;2022-10-13T09:47:23;49.33;;;26.10;;
61640;SDS011;62201;49.966;8.342;2022-10-13T09:49:58;49.40;;;27.65;;
61640;SDS011;62201;49.966;8.342;2022-10-13T09:52:28;48.38;;;27.92;;
61640;SDS011;62201;49.966;8.342;2022-10-13T09:54:59;53.70;;;27.88;;
61640;SDS011;62201;49.966;8.342;2022-10-13T10:00:21;50.75;;;26.75;;
61640;SDS011;62201;49.966;8.342;2022-10-13T10:02:52;46.05;;;26.48;;
61640;SDS011;62201;49.966;8.342;2022-10-13T10:05:37;57.95;;;27.40;;
61640;SDS011;62201;49.966;8.342;2022-10-13T10:08:20;52.60;;;30.25;;
61640;SDS011;62201;49.966;8.342;2022-10-13T10:11:01;54.87;;;29.33;;
61640;SDS011;62201;49.966;8.342;2022-10-13T10:13:29;50.97;;;25.35;;
61640;SDS011;62201;49.966;8.342;2022-10-13T10:24:21;51.78;;;24.63;;
61640;SDS011;62201;49.966;8.342;2022-10-13T10:35:19;45.53;;;23.10;;
61640;SDS011;62201;49.966;8.342;2022-10-13T10:38:49;51.83;;;24.10;;
61640;SDS011;62201;49.966;8.342;2022-10-13T10:43:51;48.08;;;24.85;;
61640;SDS011;62201;49.966;8.342;2022-10-13T10:46:22;54.03;;;26.35;;
61640;SDS011;62201;49.966;8.342;2022-10-13T10:48:52;59.10;;;25.88;;
61640;SDS011;62201;49.966;8.342;2022-10-13T10:51:22;46.50;;;24.10;;
61640;SDS011;62201;49.966;8.342;2022-10-13T10:56:31;53.50;;;26.33;;
61640;SDS011;62201;49.966;8.342;2022-10-13T11:01:32;55.67;;;27.20;;
61640;SDS011;62201;49.966;8.342;2022-10-13T11:14:45;54.65;;;27.73;;
61640;SDS011;62201;49.966;8.342;2022-10-13T11:19:52;47.22;;;25.90;;
61640;SDS011;62201;49.966;8.342;2022-10-13T11:22:20;47.50;;;26.33;;
61640;SDS011;62201;49.966;8.342;2022-10-13T11:24:48;47.83;;;24.58;;
61640;SDS011;62201;49.966;8.342;2022-10-13T11:27:25;47.33;;;26.17;;
61640;SDS011;62201;49.966;8.342;2022-10-13T11:29:52;53.42;;;29.35;;
61640;SDS011;62201;49.966;8.342;2022-10-13T11:37:22;51.42;;;27.33;;
61640;SDS011;62201;49.966;8.342;2022-10-13T11:42:30;53.05;;;28.98;;
61640;SDS011;62201;49.966;8.342;2022-10-13T11:45:13;57.40;;;30.10;;
61640;SDS011;62201;49.966;8.342;2022-10-13T11:56:49;44.30;;;25.52;;
61640;SDS011;62201;49.966;8.342;2022-10-13T11:59:25;48.55;;;25.27;;
61640;SDS011;62201;49.966;8.342;2022-10-13T12:11:38;45.97;;;25.50;;
61640;SDS011;62201;49.966;8.342;2022-10-13T12:21:15;35.30;;;22.70;;
61640;SDS011;62201;49.966;8.342;2022-10-13T12:24:07;42.40;;;23.98;;
61640;SDS011;62201;49.966;8.342;2022-10-13T12:40:24;33.88;;;20.42;;
61640;SDS011;62201;49.966;8.342;2022-10-13T12:42:50;28.85;;;19.00;;
61640;SDS011;62201;49.966;8.342;2022-10-13T12:45:17;30.73;;;17.90;;
61640;SDS011;62201;49.966;8.342;2022-10-13T12:53:10;24.33;;;15.98;;
61640;SDS011;62201;49.966;8.342;2022-10-13T12:55:49;33.13;;;22.67;;
61640;SDS011;62201;49.966;8.342;2022-10-13T12:58:32;27.10;;;17.95;;
61640;SDS011;62201;49.966;8.342;2022-10-13T13:03:27;25.77;;;17.15;;
61640;SDS011;62201;49.966;8.342;2022-10-13T13:06:18;30.40;;;18.63;;
61640;SDS011;62201;49.966;8.342;2022-10-13T13:09:04;25.15;;;17.30;;
61640;SDS011;62201;49.966;8.342;2022-10-13T13:11:37;25.90;;;16.63;;
61640;SDS011;62201;49.966;8.342;2022-10-13T13:15:03;25.70;;;15.30;;
61640;SDS011;62201;49.966;8.342;2022-10-13T13:19:36;26.33;;;14.60;;
61640;SDS011;62201;49.966;8.342;2022-10-13T13:22:04;23.73;;;15.13;;
61640;SDS011;62201;49.966;8.342;2022-10-13T13:24:30;23.13;;;14.65;;
61640;SDS011;62201;49.966;8.342;2022-10-13T13:26:55;25.38;;;14.88;;
61640;SDS011;62201;49.966;8.342;2022-10-13T13:29:21;21.58;;;14.40;;
61640;SDS011;62201;49.966;8.342;2022-10-13T13:31:46;25.98;;;14.13;;
61640;SDS011;62201;49.966;8.342;2022-10-13T13:34:11;20.30;;;13.63;;
61640;SDS011;62201;49.966;8.342;2022-10-13T13:36:37;25.27;;;13.93;;
61640;SDS011;62201;49.966;8.342;2022-10-13T13:39:02;24.17;;;13.63;;
61640;SDS011;62201;49.966;8.342;2022-10-13T13:41:28;22.35;;;14.05;;
61640;SDS011;62201;49.966;8.342;2022-10-13T13:43:55;20.52;;;13.82;;
61640;SDS011;62201;49.966;8.342;2022-10-13T13:46:24;20.63;;;12.80;;
61640;SDS011;62201;49.966;8.342;2022-10-13T13:48:51;21.27;;;13.77;;
61640;SDS011;62201;49.966;8.342;2022-10-13T13:51:17;23.30;;;14.20;;
61640;SDS011;62201;49.966;8.342;2022-10-13T13:53:42;24.60;;;14.43;;
61640;SDS011;62201;49.966;8.342;2022-10-13T13:56:10;20.88;;;12.95;;
61640;SDS011;62201;49.966;8.342;2022-10-13T13:58:41;20.65;;;13.20;;
61640;SDS011;62201;49.966;8.342;2022-10-13T14:01:06;22.95;;;14.55;;
61640;SDS011;62201;49.966;8.342;2022-10-13T14:03:32;25.35;;;15.38;;
61640;SDS011;62201;49.966;8.342;2022-10-13T14:05:57;28.65;;;16.40;;
61640;SDS011;62201;49.966;8.342;2022-10-13T14:08:23;26.50;;;16.25;;
61640;SDS011;62201;49.966;8.342;2022-10-13T14:10:48;30.10;;;17.33;;
61640;SDS011;62201;49.966;8.342;2022-10-13T14:13:13;25.15;;;17.10;;
61640;SDS011;62201;49.966;8.342;2022-10-13T14:15:39;27.90;;;17.50;;
61640;SDS011;62201;49.966;8.342;2022-10-13T14:18:04;27.02;;;17.58;;
61640;SDS011;62201;49.966;8.342;2022-10-13T14:20:31;27.60;;;17.58;;
61640;SDS011;62201;49.966;8.342;2022-10-13T14:22:57;31.15;;;17.75;;
61640;SDS011;62201;49.966;8.342;2022-10-13T14:25:22;26.38;;;17.08;;
61640;SDS011;62201;49.966;8.342;2022-10-13T14:27:48;26.85;;;17.90;;
61640;SDS011;62201;49.966;8.342;2022-10-13T14:30:13;26.85;;;18.75;;
61640;SDS011;62201;49.966;8.342;2022-10-13T14:32:39;28.92;;;17.67;;
61640;SDS011;62201;49.966;8.342;2022-10-13T14:35:04;26.67;;;17.95;;
61640;SDS011;62201;49.966;8.342;2022-10-13T14:37:30;31.30;;;18.23;;
61640;SDS011;62201;49.966;8.342;2022-10-13T14:39:55;31.50;;;18.30;;
61640;SDS011;62201;49.966;8.342;2022-10-13T14:42:21;28.42;;;18.13;;
61640;SDS011;62201;49.966;8.342;2022-10-13T14:44:46;27.83;;;18.13;;
61640;SDS011;62201;49.966;8.342;2022-10-13T14:47:12;30.55;;;17.33;;
61640;SDS011;62201;49.966;8.342;2022-10-13T14:49:37;26.88;;;17.92;;
61640;SDS011;62201;49.966;8.342;2022-10-13T14:52:03;25.98;;;17.25;;
61640;SDS011;62201;49.966;8.342;2022-10-13T14:54:28;31.38;;;16.77;;
61640;SDS011;62201;49.966;8.342;2022-10-13T14:56:54;29.15;;;17.45;;
61640;SDS011;62201;49.966;8.342;2022-10-13T14:59:19;24.83;;;16.67;;
61640;SDS011;62201;49.966;8.342;2022-10-13T15:01:45;25.20;;;16.17;;
61640;SDS011;62201;49.966;8.342;2022-10-13T15:04:12;25.05;;;15.73;;
61640;SDS011;62201;49.966;8.342;2022-10-13T15:06:37;27.30;;;16.33;;
61640;SDS011;62201;49.966;8.342;2022-10-13T15:09:03;33.75;;;16.73;;
61640;SDS011;62201;49.966;8.342;2022-10-13T15:11:29;29.15;;;16.65;;
61640;SDS011;62201;49.966;8.342;2022-10-13T15:13:55;28.10;;;16.58;;
61640;SDS011;62201;49.966;8.342;2022-10-13T15:16:21;28.77;;;16.20;;
61640;SDS011;62201;49.966;8.342;2022-10-13T15:18:49;36.90;;;16.98;;
61640;SDS011;62201;49.966;8.342;2022-10-13T15:21:15;23.55;;;15.13;;
61640;SDS011;62201;49.966;8.342;2022-10-13T15:23:41;28.70;;;16.42;;
61640;SDS011;62201;49.966;8.342;2022-10-13T15:26:07;29.05;;;16.15;;
61640;SDS011;62201;49.966;8.342;2022-10-13T15:28:35;25.02;;;16.70;;
61640;SDS011;62201;49.966;8.342;2022-10-13T15:31:02;27.05;;;16.02;;
61640;SDS011;62201;49.966;8.342;2022-10-13T15:33:28;29.77;;;17.08;;
61640;SDS011;62201;49.966;8.342;2022-10-13T15:35:54;39.30;;;18.38;;
61640;SDS011;62201;49.966;8.342;2022-10-13T15:38:20;29.25;;;17.50;;
61640;SDS011;62201;49.966;8.342;2022-10-13T15:40:46;35.80;;;19.77;;
61640;SDS011;62201;49.966;8.342;2022-10-13T15:43:12;33.55;;;20.27;;
61640;SDS011;62201;49.966;8.342;2022-10-13T15:45:38;39.75;;;22.35;;
61640;SDS011;62201;49.966;8.342;2022-10-13T15:48:04;39.17;;;23.70;;
61640;SDS011;62201;49.966;8.342;2022-10-13T15:50:30;38.58;;;25.02;;
61640;SDS011;62201;49.966;8.342;2022-10-13T15:52:56;43.67;;;26.55;;
61640;SDS011;62201;49.966;8.342;2022-10-13T15:55:21;51.45;;;28.63;;
61640;SDS011;62201;49.966;8.342;2022-10-13T15:57:47;50.97;;;29.73;;
61640;SDS011;62201;49.966;8.342;2022-10-13T16:00:13;49.58;;;28.80;;
61640;SDS011;62201;49.966;8.342;2022-10-13T16:02:40;55.20;;;30.52;;
61640;SDS011;62201;49.966;8.342;2022-10-13T16:05:07;56.70;;;31.55;;
61640;SDS011;62201;49.966;8.342;2022-10-13T16:07:34;52.10;;;32.20;;
61640;SDS011;62201;49.966;8.342;2022-10-13T16:09:59;57.33;;;33.35;;
61640;SDS011;62201;49.966;8.342;2022-10-13T16:12:28;60.63;;;34.85;;
61640;SDS011;62201;49.966;8.342;2022-10-13T16:14:54;75.35;;;40.05;;
61640;SDS011;62201;49.966;8.342;2022-10-13T16:17:20;86.80;;;41.83;;
61640;SDS011;62201;49.966;8.342;2022-10-13T16:19:45;60.45;;;34.05;;
61640;SDS011;62201;49.966;8.342;2022-10-13T16:22:11;75.22;;;39.38;;
61640;SDS011;62201;49.966;8.342;2022-10-13T16:24:37;55.83;;;35.30;;
61640;SDS011;62201;49.966;8.342;2022-10-13T16:27:02;69.22;;;38.58;;
61640;SDS011;62201;49.966;8.342;2022-10-13T16:29:28;82.60;;;40.28;;
61640;SDS011;62201;49.966;8.342;2022-10-13T16:31:53;94.63;;;44.97;;
61640;SDS011;62201;49.966;8.342;2022-10-13T16:34:19;88.78;;;44.22;;
61640;SDS011;62201;49.966;8.342;2022-10-13T16:36:45;93.18;;;44.75;;